Time;durP1;ratioP1;P1;durP2;ratioP2;P2;SDS_P1;SDS_P2;PMS_P1;PMS_P2;Temp;Humidity;BMP_temperature;BMP_pressure;BME280_temperature;BME280_humidity;BME280_pressure;Samples;Min_cycle;Max_cycle;Signal;HPM_P1;HPM_P2
2022/12/07 00:01:13;;;;;;;20.97;14.07;;;;;;;3.29;81.01;100506.38;1721809;82;21081;-80
2022/12/07 00:03:41;;;;;;;21.37;14.93;;;;;;;3.31;80.99;100505.16;1738052;82;21437;-80
2022/12/07 00:06:10;;;;;;;22.02;15.15;;;;;;;3.32;81.01;100500.42;1729510;81;21730;-85
2022/12/07 00:08:36;;;;;;;21.45;15.63;;;;;;;3.32;80.97;100493.92;1726266;81;21277;-84
2022/12/07 00:11:08;;;;;;;21.02;14.87;;;;;;;3.32;80.98;100493.92;1713682;82;21632;-80
2022/12/07 00:13:34;;;;;;;19.37;14.35;;;;;;;3.33;81.01;100491.83;1731845;82;21015;-80
2022/12/07 00:16:07;;;;;;;20.65;14.10;;;;;;;3.34;81.04;100488.80;1723303;82;21069;-84
2022/12/07 00:18:34;;;;;;;23.35;14.30;;;;;;;3.34;80.96;100484.91;1734562;81;21758;-79
2022/12/07 00:21:13;;;;;;;19.80;13.55;;;;;;;3.33;80.99;100487.92;1737251;81;20963;-79
2022/12/07 00:23:40;;;;;;;18.65;13.78;;;;;;;3.36;81.00;100488.47;1734598;82;21007;-84
2022/12/07 00:26:19;;;;;;;19.92;14.28;;;;;;;3.36;80.98;100476.38;1728334;82;21011;-84
2022/12/07 00:28:47;;;;;;;20.23;14.60;;;;;;;3.34;80.95;100477.09;1736284;81;21068;-84
2022/12/07 00:31:15;;;;;;;19.05;13.45;;;;;;;3.31;80.91;100472.23;1724176;82;21876;-85
2022/12/07 00:33:42;;;;;;;17.85;13.25;;;;;;;3.29;80.89;100473.87;1718943;82;21441;-85
2022/12/07 00:36:14;;;;;;;22.30;14.60;;;;;;;3.23;80.84;100477.86;1724584;82;21369;-85
2022/12/07 00:38:41;;;;;;;19.00;13.45;;;;;;;3.21;80.95;100479.11;1720299;82;21175;-85
2022/12/07 00:41:16;;;;;;;18.45;12.35;;;;;;;3.21;81.06;100479.11;1737908;82;21060;-85
2022/12/07 00:43:44;;;;;;;18.90;13.88;;;;;;;3.23;81.10;100480.45;1730554;82;22001;-85
2022/12/07 00:46:11;;;;;;;19.10;13.62;;;;;;;3.22;81.12;100474.37;1732566;82;21035;-85
2022/12/07 00:48:37;;;;;;;19.65;13.62;;;;;;;3.22;81.07;100470.89;1725503;82;21051;-85
2022/12/07 00:51:04;;;;;;;18.05;13.05;;;;;;;3.18;81.01;100475.04;1731656;82;21651;-85
2022/12/07 00:53:33;;;;;;;16.30;12.43;;;;;;;3.18;81.13;100475.04;1728120;82;21095;-85
2022/12/07 00:56:16;;;;;;;20.10;12.65;;;;;;;3.21;81.17;100472.98;1695649;82;21944;-79
2022/12/07 00:58:43;;;;;;;20.40;13.55;;;;;;;3.24;81.25;100462.33;1727196;82;21348;-80
2022/12/07 01:01:10;;;;;;;18.85;12.03;;;;;;;3.29;81.31;100460.86;1718489;82;21011;-82
2022/12/07 01:03:37;;;;;;;17.62;12.30;;;;;;;3.33;81.23;100458.42;1727948;82;22124;-82
2022/12/07 01:06:04;;;;;;;17.95;12.40;;;;;;;3.36;81.25;100454.27;1728912;82;21050;-87
2022/12/07 01:08:31;;;;;;;16.55;11.73;;;;;;;3.38;81.21;100451.71;1737571;81;21744;-85
2022/12/07 01:11:04;;;;;;;19.17;13.20;;;;;;;3.40;81.18;100444.48;1748152;81;21081;-85
2022/12/07 01:13:31;;;;;;;16.90;11.97;;;;;;;3.41;81.14;100441.47;1745788;81;21053;-85
2022/12/07 01:15:59;;;;;;;17.15;13.10;;;;;;;3.42;81.14;100445.87;1751807;81;21748;-85
2022/12/07 01:18:28;;;;;;;17.25;12.40;;;;;;;3.40;81.07;100447.50;1751498;81;21062;-87
2022/12/07 01:21:05;;;;;;;17.52;12.33;;;;;;;3.40;81.10;100439.70;1746584;81;21786;-87
2022/12/07 01:23:32;;;;;;;17.27;12.40;;;;;;;3.39;81.08;100437.48;1742732;81;21062;-84
2022/12/07 01:26:02;;;;;;;17.80;12.03;;;;;;;3.43;81.14;100435.92;1749433;81;21501;-85
2022/12/07 01:28:29;;;;;;;20.15;13.65;;;;;;;3.44;81.12;100435.12;1751448;81;21152;-80
2022/12/07 01:31:05;;;;;;;18.45;12.40;;;;;;;3.44;81.04;100422.99;1747176;81;21880;-80
2022/12/07 01:33:34;;;;;;;17.37;11.88;;;;;;;3.44;81.09;100426.02;1748760;81;21835;-80
2022/12/07 01:36:20;;;;;;;15.85;11.33;;;;;;;3.46;81.10;100425.26;1752747;81;21107;-80
2022/12/07 01:38:47;;;;;;;15.65;11.45;;;;;;;3.46;81.07;100420.47;1748003;81;21053;-79
2022/12/07 01:41:14;;;;;;;16.37;11.50;;;;;;;3.48;81.06;100422.73;1744443;80;21130;-81
2022/12/07 01:44:23;;;;;;;16.23;11.10;;;;;;;3.49;81.07;100417.61;1736289;81;21058;-81
2022/12/07 01:46:57;;;;;;;15.13;10.90;;;;;;;3.52;81.08;100418.58;1753776;80;21889;-81
2022/12/07 01:49:41;;;;;;;16.55;11.25;;;;;;;3.55;81.10;100416.09;1747206;81;21556;-80
2022/12/07 01:52:18;;;;;;;17.30;11.88;;;;;;;3.56;81.02;100413.99;1729909;81;21073;-80
2022/12/07 01:54:46;;;;;;;15.98;11.68;;;;;;;3.58;81.08;100411.05;1742091;81;21114;-81
2022/12/07 01:57:13;;;;;;;15.13;11.28;;;;;;;3.59;81.10;100412.84;1757772;81;21053;-81
2022/12/07 01:59:40;;;;;;;16.52;11.90;;;;;;;3.59;81.07;100413.73;1697069;81;21723;-82
2022/12/07 02:02:12;;;;;;;16.17;12.33;;;;;;;3.58;80.97;100413.66;1750864;81;21079;-82
2022/12/07 02:04:38;;;;;;;16.80;12.07;;;;;;;3.57;81.08;100411.47;1687253;84;21094;-82
2022/12/07 02:07:06;;;;;;;15.63;11.57;;;;;;;3.59;81.11;100409.83;1712051;83;21049;-82
2022/12/07 02:09:33;;;;;;;15.23;11.10;;;;;;;3.61;81.12;100406.88;1690583;83;21108;-82
2022/12/07 02:12:00;;;;;;;18.12;11.18;;;;;;;3.63;81.13;100408.27;1694289;83;21807;-88
2022/12/07 02:14:27;;;;;;;16.15;11.20;;;;;;;3.65;81.08;100405.32;1710691;82;21347;-85
2022/12/07 02:17:14;;;;;;;17.17;11.33;;;;;;;3.64;81.07;100400.53;1687287;82;21728;-85
2022/12/07 02:20:13;;;;;;;14.85;10.80;;;;;;;3.67;81.13;100396.75;1689820;84;21147;-85
2022/12/07 02:23:19;;;;;;;14.70;10.85;;;;;;;3.69;81.15;100389.91;1700357;83;21837;-80
2022/12/07 02:26:21;;;;;;;16.45;10.98;;;;;;;3.75;81.15;100385.81;1687529;84;21747;-80
2022/12/07 02:29:10;;;;;;;16.50;11.05;;;;;;;3.76;81.08;100381.98;1683555;84;21563;-86
2022/12/07 02:31:39;;;;;;;15.18;10.43;;;;;;;3.75;80.97;100377.58;1696567;84;21101;-86
2022/12/07 02:34:19;;;;;;;16.67;11.03;;;;;;;3.74;80.96;100381.02;1668270;84;21113;-80
2022/12/07 02:36:57;;;;;;;15.13;10.90;;;;;;;3.75;81.04;100377.58;1698063;84;21164;-80
2022/12/07 02:39:38;;;;;;;14.00;10.35;;;;;;;3.76;80.96;100371.98;1656356;84;21779;-85
2022/12/07 02:42:13;;;;;;;13.78;9.93;;;;;;;3.75;80.99;100365.87;1690796;84;21092;-85
2022/12/07 02:44:40;;;;;;;13.90;10.65;;;;;;;3.75;80.97;100362.38;1693638;84;21066;-85
2022/12/07 02:47:09;;;;;;;16.75;11.05;;;;;;;3.74;81.01;100361.50;1692722;84;21895;-85
2022/12/07 02:49:37;;;;;;;14.73;11.08;;;;;;;3.72;80.97;100355.34;1688642;84;21098;-85
2022/12/07 02:52:04;;;;;;;13.03;10.65;;;;;;;3.71;81.00;100358.75;1684303;84;21768;-85
2022/12/07 02:54:31;;;;;;;15.88;10.65;;;;;;;3.70;80.97;100355.26;1691515;84;21464;-85
2022/12/07 02:57:18;;;;;;;13.28;10.60;;;;;;;3.69;80.93;100353.46;1691238;84;22261;-85
2022/12/07 03:00:07;;;;;;;15.20;9.88;;;;;;;3.66;80.96;100344.63;1693966;84;21316;-81
2022/12/07 03:03:00;;;;;;;14.98;9.63;;;;;;;3.69;81.05;100348.67;1689104;84;21115;-85
2022/12/07 03:06:00;;;;;;;14.07;9.63;;;;;;;3.72;81.10;100341.41;1688804;84;23156;-85
2022/12/07 03:08:44;;;;;;;13.50;9.15;;;;;;;3.73;81.10;100340.18;1687244;84;21975;-81
2022/12/07 03:11:16;;;;;;;12.55;8.95;;;;;;;3.74;81.15;100335.47;1656491;84;21076;-86
2022/12/07 03:14:03;;;;;;;13.80;9.88;;;;;;;3.78;81.25;100333.48;1674332;84;21143;-81
2022/12/07 03:16:44;;;;;;;11.80;8.85;;;;;;;3.83;81.30;100332.37;1693570;83;21073;-88
2022/12/07 03:19:15;;;;;;;12.82;8.85;;;;;;;3.86;81.31;100327.31;1685908;84;21844;-88
2022/12/07 03:21:58;;;;;;;12.00;8.25;;;;;;;3.88;81.29;100333.06;1689939;83;21076;-86
2022/12/07 03:24:29;;;;;;;13.78;8.95;;;;;;;3.88;81.23;100329.58;1673596;84;21078;-81
2022/12/07 03:27:07;;;;;;;12.53;8.75;;;;;;;3.87;81.25;100329.99;1638825;86;21279;-86
2022/12/07 03:29:41;;;;;;;12.65;8.50;;;;;;;3.88;81.30;100324.37;1612279;84;21465;-82
2022/12/07 03:32:33;;;;;;;11.12;8.05;;;;;;;3.87;81.25;100322.61;1669218;84;21786;-83
2022/12/07 03:35:07;;;;;;;14.50;8.05;;;;;;;3.84;81.17;100325.06;1669664;84;21056;-83
2022/12/07 03:37:48;;;;;;;11.83;8.35;;;;;;;3.78;81.22;100320.89;1680077;84;21915;-82
2022/12/07 03:40:22;;;;;;;11.00;8.23;;;;;;;3.76;81.29;100318.63;1672240;84;21013;-82
2022/12/07 03:42:49;;;;;;;8.70;7.40;;;;;;;3.75;81.27;100320.73;1685500;84;21434;-83
2022/12/07 03:45:16;;;;;;;9.98;7.75;;;;;;;3.74;81.33;100312.47;1671389;84;21746;-82
2022/12/07 03:48:06;;;;;;;8.55;7.05;;;;;;;3.71;81.40;100309.29;1678305;84;21120;-82
2022/12/07 03:50:44;;;;;;;9.15;7.45;;;;;;;3.70;81.41;100307.53;1681235;84;21009;-82
2022/12/07 03:53:25;;;;;;;9.50;6.70;;;;;;;3.69;81.42;100304.01;1686304;83;20994;-82
2022/12/07 03:55:51;;;;;;;8.83;6.97;;;;;;;3.67;81.44;100301.75;1673554;84;21542;-87
2022/12/07 03:58:20;;;;;;;10.85;6.60;;;;;;;3.68;81.46;100297.04;1678473;84;21773;-82
2022/12/07 04:00:47;;;;;;;11.30;7.40;;;;;;;3.69;81.53;100296.20;1676215;84;20980;-87
2022/12/07 04:03:14;;;;;;;9.03;6.15;;;;;;;3.68;81.45;100289.65;1700883;83;20986;-87
2022/12/07 04:05:41;;;;;;;9.15;6.60;;;;;;;3.68;81.51;100285.33;1670497;83;20978;-85
2022/12/07 04:08:07;;;;;;;9.28;6.72;;;;;;;3.68;81.49;100280.13;1684218;83;21073;-85
2022/12/07 04:10:34;;;;;;;8.53;6.58;;;;;;;3.66;81.49;100273.95;1710144;83;21764;-85
2022/12/07 04:13:01;;;;;;;9.15;6.37;;;;;;;3.67;81.50;100282.65;1691445;84;21536;-81
2022/12/07 04:15:28;;;;;;;8.18;6.10;;;;;;;3.65;81.46;100273.88;1711255;83;21054;-81
2022/12/07 04:17:54;;;;;;;7.90;6.17;;;;;;;3.64;81.47;100269.09;1704422;83;21059;-86
2022/12/07 04:20:21;;;;;;;7.95;6.03;;;;;;;3.65;81.52;100266.08;1712241;83;21129;-88
2022/12/07 04:22:48;;;;;;;7.65;5.80;;;;;;;3.65;81.57;100266.95;1700024;83;22253;-87
2022/12/07 04:25:15;;;;;;;6.40;5.10;;;;;;;3.64;81.52;100265.58;1705489;83;21158;-88
2022/12/07 04:27:42;;;;;;;6.85;5.12;;;;;;;3.66;81.60;100263.94;1689783;84;21115;-87
2022/12/07 04:30:09;;;;;;;6.20;5.55;;;;;;;3.66;81.59;100262.62;1706904;82;21460;-88
2022/12/07 04:32:36;;;;;;;6.35;5.53;;;;;;;3.65;81.56;100266.95;1688689;84;21097;-83
2022/12/07 04:35:05;;;;;;;6.35;5.20;;;;;;;3.65;81.63;100266.95;1707026;83;21751;-83
2022/12/07 04:37:32;;;;;;;5.37;4.87;;;;;;;3.64;81.61;100261.29;1703205;83;21093;-85
2022/12/07 04:39:58;;;;;;;6.78;5.03;;;;;;;3.65;81.60;100261.75;1683972;84;21017;-80
2022/12/07 04:42:25;;;;;;;6.80;4.83;;;;;;;3.65;81.60;100258.27;1701588;84;21877;-81
2022/12/07 04:44:52;;;;;;;6.40;4.72;;;;;;;3.66;81.64;100254.44;1708618;83;20998;-80
2022/12/07 04:47:19;;;;;;;5.75;4.35;;;;;;;3.66;81.59;100254.83;1710500;83;21985;-82
2022/12/07 04:49:45;;;;;;;7.12;5.33;;;;;;;3.65;81.58;100251.77;1709611;82;21029;-87
2022/12/07 04:52:12;;;;;;;7.30;5.67;;;;;;;3.64;81.60;100249.58;1714047;83;22051;-83
2022/12/07 04:54:39;;;;;;;7.33;5.12;;;;;;;3.66;81.69;100246.63;1714810;82;20992;-86
2022/12/07 04:57:06;;;;;;;7.08;5.85;;;;;;;3.69;81.73;100250.65;1682838;84;21080;-83
2022/12/07 04:59:32;;;;;;;10.55;5.67;;;;;;;3.71;81.70;100250.72;1688922;84;21688;-87
2022/12/07 05:01:59;;;;;;;8.13;6.00;;;;;;;3.74;81.72;100244.78;1713258;82;21062;-83
2022/12/07 05:04:26;;;;;;;8.18;6.20;;;;;;;3.77;81.74;100240.99;1711047;83;21622;-81
2022/12/07 05:06:52;;;;;;;6.85;4.87;;;;;;;3.79;81.72;100234.14;1709991;83;21134;-83
2022/12/07 05:09:19;;;;;;;6.83;5.20;;;;;;;3.82;81.79;100232.98;1670620;84;21105;-82
2022/12/07 05:11:56;;;;;;;5.80;5.10;;;;;;;3.84;81.75;100227.42;1682195;84;22716;-82
2022/12/07 05:14:36;;;;;;;10.20;5.70;;;;;;;3.85;81.68;100227.50;1646162;84;21033;-82
2022/12/07 05:17:06;;;;;;;7.60;5.40;;;;;;;3.86;81.72;100225.36;1675482;84;20999;-85
2022/12/07 05:19:33;;;;;;;6.08;5.35;;;;;;;3.88;81.69;100228.03;1683015;84;20987;-80
2022/12/07 05:22:00;;;;;;;6.58;5.28;;;;;;;3.87;81.67;100219.76;1685044;84;21936;-80
2022/12/07 05:24:27;;;;;;;7.03;5.33;;;;;;;3.88;81.70;100221.10;1681545;84;21745;-86
2022/12/07 05:26:53;;;;;;;7.75;4.87;;;;;;;3.90;81.71;100214.66;1684490;84;21542;-85
2022/12/07 05:29:20;;;;;;;8.83;5.47;;;;;;;3.90;81.74;100218.57;1682928;84;21496;-87
2022/12/07 05:31:46;;;;;;;6.65;5.55;;;;;;;3.92;81.74;100222.12;1683994;84;21519;-85
2022/12/07 05:34:13;;;;;;;7.28;5.95;;;;;;;3.91;81.73;100217.77;1682898;84;21005;-86
2022/12/07 05:36:40;;;;;;;7.20;6.30;;;;;;;3.89;81.72;100218.11;1683128;84;21802;-84
2022/12/07 05:39:08;;;;;;;8.68;6.15;;;;;;;3.89;81.83;100217.69;1685116;84;21434;-86
2022/12/07 05:44:19;;;;;;;8.65;6.15;;;;;;;3.90;81.82;100217.27;1683009;84;21083;-86
2022/12/07 05:46:46;;;;;;;7.25;6.47;;;;;;;3.87;81.80;100211.53;1682133;84;21096;-85
2022/12/07 05:49:13;;;;;;;7.05;6.28;;;;;;;3.88;81.83;100212.41;1681618;84;21753;-85
2022/12/07 05:51:40;;;;;;;9.50;6.10;;;;;;;3.88;81.91;100217.62;1683463;84;21048;-87
2022/12/07 05:54:06;;;;;;;9.68;6.60;;;;;;;3.89;81.91;100210.30;1679334;84;21098;-85
2022/12/07 05:56:33;;;;;;;7.35;6.30;;;;;;;3.90;81.89;100209.45;1686172;84;21068;-82
2022/12/07 06:01:45;;;;;;;7.37;6.10;;;;;;;3.91;81.88;100198.23;1679826;84;21766;-86
2022/12/07 06:04:12;;;;;;;7.92;5.70;;;;;;;3.92;81.94;100205.20;1684050;84;21272;-88
2022/12/07 06:06:39;;;;;;;8.50;6.03;;;;;;;3.94;81.94;100203.59;1680947;84;21670;-87
2022/12/07 06:09:06;;;;;;;8.10;5.90;;;;;;;3.96;81.91;100208.83;1683278;84;21037;-86
2022/12/07 06:14:19;;;;;;;6.10;5.17;;;;;;;3.93;81.83;100204.39;1668498;85;21779;-87
2022/12/07 06:16:46;;;;;;;8.55;5.28;;;;;;;3.95;81.88;100204.05;1704504;82;21031;-87
2022/12/07 06:19:14;;;;;;;5.20;4.33;;;;;;;3.97;81.93;100194.58;1693983;83;21026;-82
2022/12/07 06:21:41;;;;;;;5.50;4.28;;;;;;;3.97;81.83;100197.19;1701757;82;21487;-87
2022/12/07 06:24:11;;;;;;;4.72;4.15;;;;;;;3.96;81.75;100194.12;1664862;82;21535;-81
2022/12/07 06:26:38;;;;;;;6.15;4.22;;;;;;;3.94;81.66;100194.86;1703593;82;21718;-87
2022/12/07 06:29:04;;;;;;;5.78;4.75;;;;;;;3.88;81.63;100187.25;1701431;83;21058;-88
2022/12/07 06:31:31;;;;;;;4.40;3.80;;;;;;;3.92;81.64;100188.70;1713783;82;21421;-88
2022/12/07 06:34:04;;;;;;;4.47;3.62;;;;;;;3.92;81.56;100186.09;1709747;82;21031;-82
2022/12/07 06:36:31;;;;;;;7.37;4.90;;;;;;;3.91;81.48;100190.84;1708762;82;21110;-88
2022/12/07 06:38:57;;;;;;;5.47;4.70;;;;;;;3.86;81.34;100186.30;1701102;82;22995;-88
2022/12/07 06:41:24;;;;;;;15.23;9.78;;;;;;;3.85;81.31;100190.17;1697612;83;21097;-81
2022/12/07 06:43:51;;;;;;;11.75;7.53;;;;;;;3.84;81.24;100188.38;1698814;84;21093;-84
2022/12/07 06:46:18;;;;;;;6.20;4.60;;;;;;;3.83;81.18;100183.98;1700787;82;21066;-85
2022/12/07 06:48:45;;;;;;;7.50;5.28;;;;;;;3.81;80.98;100184.33;1670077;84;21091;-80
2022/12/07 06:51:11;;;;;;;6.08;4.95;;;;;;;3.80;80.90;100186.05;1640541;86;21770;-83
2022/12/07 06:53:38;;;;;;;5.83;4.17;;;;;;;3.80;80.83;100174.75;1665108;84;21415;-84
2022/12/07 06:56:05;;;;;;;13.32;7.35;;;;;;;3.79;80.71;100177.78;1647933;85;21174;-85
2022/12/07 06:58:32;;;;;;;13.35;7.72;;;;;;;3.79;80.65;100175.56;1652174;85;21637;-86
2022/12/07 07:01:00;;;;;;;6.40;4.10;;;;;;;3.78;80.51;100185.52;1665471;84;21115;-80
2022/12/07 07:03:27;;;;;;;18.62;9.10;;;;;;;3.74;80.38;100179.28;1705520;82;21745;-81
2022/12/07 07:05:54;;;;;;;13.35;7.78;;;;;;;3.73;80.38;100176.19;1703589;82;21592;-85
2022/12/07 07:08:21;;;;;;;16.52;9.98;;;;;;;3.73;80.36;100180.09;1703289;82;21050;-86
2022/12/07 07:10:48;;;;;;;12.75;4.92;;;;;;;3.74;80.33;100175.80;1715453;82;21058;-86
2022/12/07 07:13:14;;;;;;;17.80;6.17;;;;;;;3.70;80.20;100178.27;1696739;83;21072;-86
2022/12/07 07:18:21;;;;;;;33.63;15.18;;;;;;;3.66;80.13;100171.16;1753111;80;23158;-80
2022/12/07 07:20:47;;;;;;;24.77;13.15;;;;;;;3.63;80.17;100178.81;1727220;81;21640;-80
2022/12/07 07:23:15;;;;;;;47.48;25.45;;;;;;;3.66;80.23;100178.05;1723125;81;22108;-80
2022/12/07 07:25:41;;;;;;;25.70;14.98;;;;;;;3.67;80.19;100173.33;1728641;81;21063;-80
2022/12/07 07:28:08;;;;;;;17.90;11.73;;;;;;;3.66;80.11;100178.95;1726338;81;21054;-80
2022/12/07 07:30:35;;;;;;;10.90;7.70;;;;;;;3.66;80.06;100177.66;1712688;81;21311;-80
2022/12/07 07:33:02;;;;;;;33.50;22.80;;;;;;;3.68;80.02;100182.94;1726966;81;21068;-81
2022/12/07 07:35:29;;;;;;;29.02;19.12;;;;;;;3.68;80.07;100181.22;1732116;81;22621;-83
2022/12/07 07:37:56;;;;;;;16.50;12.35;;;;;;;3.71;80.00;100181.75;1726175;81;21981;-89
2022/12/07 07:40:23;;;;;;;20.43;14.33;;;;;;;3.72;79.98;100180.94;1734244;81;21826;-89
2022/12/07 07:42:50;;;;;;;12.73;10.35;;;;;;;3.70;79.91;100187.38;1724731;81;21670;-86
2022/12/07 07:45:18;;;;;;;19.42;13.38;;;;;;;3.70;79.83;100181.28;1727883;81;21142;-80
2022/12/07 07:47:45;;;;;;;17.95;13.48;;;;;;;3.67;79.77;100188.53;1731241;81;21751;-86
2022/12/07 07:50:12;;;;;;;16.20;11.57;;;;;;;3.64;79.71;100184.90;1723723;81;21880;-87
2022/12/07 07:52:39;;;;;;;12.73;8.40;;;;;;;3.62;79.75;100187.46;1728746;81;21084;-86
2022/12/07 07:55:11;;;;;;;14.40;9.05;;;;;;;3.61;79.78;100186.97;1723210;81;21153;-81
2022/12/07 07:57:38;;;;;;;13.25;9.03;;;;;;;3.60;79.79;100185.59;1723016;81;21055;-81
2022/12/07 08:00:08;;;;;;;16.15;9.60;;;;;;;3.59;79.78;100183.83;1721931;81;22611;-84
2022/12/07 08:02:35;;;;;;;15.93;11.85;;;;;;;3.58;79.72;100185.52;1724620;81;21132;-86
2022/12/07 08:05:04;;;;;;;16.73;11.15;;;;;;;3.57;79.73;100185.06;1722615;82;21808;-87
2022/12/07 08:07:32;;;;;;;21.77;12.07;;;;;;;3.57;79.74;100178.98;1728092;81;21609;-81
2022/12/07 08:10:10;;;;;;;13.90;8.43;;;;;;;3.59;79.82;100172.13;1723606;82;21070;-86
2022/12/07 08:15:50;;;;;;;101.25;50.88;;;;;;;3.68;79.93;100169.50;1729393;81;22103;-81
2022/12/07 08:18:20;;;;;;;57.78;33.78;;;;;;;3.75;79.89;100168.45;1730562;81;21012;-81
2022/12/07 08:20:47;;;;;;;18.62;12.63;;;;;;;3.78;79.87;100161.67;1728145;81;21040;-82
2022/12/07 08:23:13;;;;;;;16.27;9.38;;;;;;;3.85;79.90;100166.31;1730782;81;21486;-82
2022/12/07 08:25:40;;;;;;;12.07;8.98;;;;;;;3.91;79.91;100165.69;1733118;81;21766;-81
2022/12/07 08:28:07;;;;;;;11.12;8.10;;;;;;;3.97;79.87;100164.63;1726510;81;20998;-82
2022/12/07 08:30:34;;;;;;;8.93;6.17;;;;;;;4.02;79.81;100167.45;1723363;81;20985;-81
2022/12/07 08:33:00;;;;;;;22.90;13.10;;;;;;;4.06;79.80;100165.44;1730313;81;20985;-81
2022/12/07 08:35:28;;;;;;;24.67;13.72;;;;;;;4.14;79.79;100164.45;1738617;81;21891;-81
2022/12/07 08:37:55;;;;;;;14.50;8.60;;;;;;;4.21;79.72;100167.80;1687231;84;21765;-81
2022/12/07 08:40:22;;;;;;;10.93;5.95;;;;;;;4.27;79.66;100162.41;1677580;84;20995;-82
2022/12/07 08:42:49;;;;;;;14.65;8.23;;;;;;;4.35;79.61;100160.11;1673393;84;21619;-81
2022/12/07 08:45:17;;;;;;;7.95;5.22;;;;;;;4.42;79.44;100162.14;1683186;84;20991;-82
2022/12/07 08:48:00;;;;;;;10.25;4.92;;;;;;;4.50;79.31;100159.83;1683406;84;21039;-82
2022/12/07 08:50:27;;;;;;;13.35;8.00;;;;;;;4.55;79.14;100156.13;1674094;84;22629;-82
2022/12/07 08:52:55;;;;;;;18.85;10.48;;;;;;;4.58;78.89;100155.84;1689064;84;21091;-82
2022/12/07 08:55:22;;;;;;;12.00;7.60;;;;;;;4.63;78.94;100156.88;1686643;84;21031;-81
2022/12/07 08:57:49;;;;;;;8.53;6.03;;;;;;;4.67;78.84;100156.20;1683454;84;21066;-94
2022/12/07 09:07:35;;;;;;;11.83;7.42;;;;;;;4.69;78.20;100148.41;1680321;84;21133;-81
2022/12/07 09:17:20;;;;;;;19.23;10.40;;;;;;;4.71;77.86;100144.17;1682054;84;20949;-81
2022/12/07 09:19:46;;;;;;;23.50;12.40;;;;;;;4.74;77.93;100142.09;1677251;84;20999;-82
2022/12/07 09:22:13;;;;;;;26.30;14.43;;;;;;;4.77;77.90;100140.49;1718451;82;21052;-81
2022/12/07 09:24:45;;;;;;;55.45;22.42;;;;;;;4.82;77.81;100142.86;1718668;81;21056;-89
2022/12/07 09:27:19;;;;;;;22.32;11.35;;;;;;;4.86;77.79;100143.45;1720606;82;21768;-87
2022/12/07 09:37:45;;;;;;;19.00;9.88;;;;;;;4.91;77.37;100143.61;1712783;82;21064;-87
2022/12/07 09:40:12;;;;;;;19.17;12.00;;;;;;;5.01;77.39;100140.92;1719131;81;21056;-87
2022/12/07 09:42:44;;;;;;;15.80;11.08;;;;;;;5.06;77.38;100129.83;1719923;82;23087;-86
2022/12/07 09:45:24;;;;;;;35.50;20.88;;;;;;;5.13;77.22;100145.73;1712253;81;21369;-86
2022/12/07 09:47:51;;;;;;;25.85;16.05;;;;;;;5.16;77.20;100144.52;1723855;81;21054;-86
2022/12/07 09:50:22;;;;;;;12.80;7.75;;;;;;;5.18;77.04;100145.47;1723206;81;21122;-90
2022/12/07 09:52:49;;;;;;;22.15;12.37;;;;;;;5.20;77.01;100147.71;1718167;81;21050;-82
2022/12/07 09:55:23;;;;;;;15.10;10.08;;;;;;;5.16;76.74;100144.52;1714902;83;22483;-86
2022/12/07 09:57:51;;;;;;;18.02;12.03;;;;;;;5.12;76.59;100142.22;1717689;81;20988;-80
2022/12/07 10:00:21;;;;;;;12.07;8.10;;;;;;;5.07;76.62;100138.57;1717367;83;21011;-86
2022/12/07 10:03:00;;;;;;;43.68;22.30;;;;;;;5.04;76.50;100138.02;1716840;82;20997;-86
2022/12/07 10:05:37;;;;;;;15.28;10.95;;;;;;;4.97;76.46;100128.19;1722773;81;21047;-80
2022/12/07 10:08:04;;;;;;;9.10;6.40;;;;;;;5.05;76.38;100133.29;1717171;82;21786;-82
2022/12/07 10:10:34;;;;;;;19.98;13.35;;;;;;;5.04;76.15;100131.92;1719198;82;20997;-92
2022/12/07 10:13:07;;;;;;;29.30;21.65;;;;;;;5.08;76.46;100136.42;1697959;82;21568;-86
2022/12/07 10:15:56;;;;;;;24.67;17.10;;;;;;;5.13;76.39;100138.79;1716371;82;21417;-86
2022/12/07 10:18:30;;;;;;;46.68;30.60;;;;;;;5.17;76.28;100136.76;1722316;81;21074;-88
2022/12/07 10:21:26;;;;;;;25.12;15.80;;;;;;;5.19;76.18;100126.38;1726758;81;21741;-86
2022/12/07 10:24:15;;;;;;;83.12;48.50;;;;;;;5.16;75.88;100132.39;1728342;81;21055;-86
2022/12/07 10:26:52;;;;;;;75.57;50.85;;;;;;;5.14;75.88;100124.89;1725372;81;21066;-85
2022/12/07 10:29:38;;;;;;;111.57;63.23;;;;;;;5.11;75.77;100120.02;1722375;82;21095;-80
2022/12/07 10:32:19;;;;;;;102.72;59.85;;;;;;;5.08;75.71;100121.19;1730316;81;21086;-85
2022/12/07 10:34:46;;;;;;;92.97;57.27;;;;;;;5.04;75.69;100117.58;1722791;81;21776;-86
2022/12/07 10:37:19;;;;;;;27.13;18.37;;;;;;;5.03;75.56;100119.70;1723630;81;21034;-80
2022/12/07 10:39:51;;;;;;;38.73;21.80;;;;;;;5.01;75.41;100114.84;1722560;81;21390;-78
2022/12/07 10:42:30;;;;;;;106.05;52.03;;;;;;;5.04;75.39;100109.75;1727774;81;21067;-87
2022/12/07 10:45:17;;;;;;;161.30;82.02;;;;;;;5.10;75.40;100111.70;1727528;81;21123;-80
2022/12/07 10:48:03;;;;;;;99.83;52.35;;;;;;;5.16;75.36;100111.52;1726720;81;21787;-85
2022/12/07 10:50:57;;;;;;;61.33;39.25;;;;;;;5.20;75.23;100105.58;1725684;81;21035;-80
2022/12/07 10:53:53;;;;;;;37.20;25.68;;;;;;;5.26;75.18;100110.12;1730704;81;21088;-85
2022/12/07 10:56:40;;;;;;;35.30;27.07;;;;;;;5.30;75.02;100104.18;1720509;81;21071;-82
2022/12/07 10:59:39;;;;;;;76.30;61.30;;;;;;;5.27;74.91;100094.92;1730883;81;21137;-81
2022/12/07 11:02:29;;;;;;;45.78;37.38;;;;;;;5.28;74.87;100097.14;1724462;81;21774;-79
2022/12/07 11:05:28;;;;;;;14.83;12.78;;;;;;;5.23;74.75;100097.84;1728021;81;21161;-86
2022/12/07 11:08:37;;;;;;;18.87;14.75;;;;;;;5.18;74.73;100088.06;1732931;81;21071;-82
2022/12/07 11:11:18;;;;;;;12.55;10.60;;;;;;;5.26;74.87;100088.83;1721576;82;21103;-83
2022/12/07 11:14:05;;;;;;;32.13;23.02;;;;;;;5.37;74.86;100085.30;1721201;81;21039;-86
2022/12/07 11:16:49;;;;;;;25.15;16.42;;;;;;;5.51;74.71;100083.16;1722814;81;21769;-83
2022/12/07 11:19:53;;;;;;;30.15;20.68;;;;;;;5.57;74.47;100070.30;1722153;81;21040;-82
2022/12/07 11:22:50;;;;;;;43.23;28.35;;;;;;;5.59;74.21;100078.20;1698614;82;22400;-82
2022/12/07 11:25:37;;;;;;;32.70;22.52;;;;;;;5.58;74.05;100071.22;1714393;82;21148;-80
2022/12/07 11:28:33;;;;;;;35.75;25.45;;;;;;;5.55;73.87;100069.38;1726455;81;21066;-82
2022/12/07 11:31:23;;;;;;;27.17;20.23;;;;;;;5.51;73.69;100064.00;1716523;81;22598;-84
2022/12/07 11:34:07;;;;;;;40.40;32.70;;;;;;;5.40;73.48;100062.33;1717756;81;21307;-82
2022/12/07 11:36:50;;;;;;;31.48;23.47;;;;;;;5.31;73.56;100062.91;1721903;81;22031;-82
2022/12/07 11:39:25;;;;;;;36.58;28.17;;;;;;;5.24;73.55;100050.48;1716851;82;21464;-83
2022/12/07 11:42:36;;;;;;;18.65;15.23;;;;;;;5.13;73.37;100048.78;1725582;81;21066;-94
2022/12/07 11:45:29;;;;;;;25.88;20.95;;;;;;;5.04;73.48;100048.03;1725790;81;21782;-84
2022/12/07 11:48:07;;;;;;;30.02;22.73;;;;;;;4.99;73.51;100048.70;1723027;82;21106;-83
2022/12/07 11:51:17;;;;;;;49.40;34.92;;;;;;;4.93;73.38;100045.45;1690762;82;21313;-90
2022/12/07 11:53:49;;;;;;;22.87;15.95;;;;;;;4.80;73.29;100049.75;1659786;85;21105;-81
2022/12/07 11:56:17;;;;;;;29.82;22.93;;;;;;;4.70;73.51;100052.86;1640049;86;21881;-88
2022/12/07 11:59:10;;;;;;;21.02;16.57;;;;;;;4.64;73.53;100041.80;1673576;84;21677;-88
2022/12/07 12:01:42;;;;;;;31.73;24.52;;;;;;;4.59;73.56;100044.63;1667567;85;21102;-88
2022/12/07 12:04:15;;;;;;;17.90;13.00;;;;;;;4.47;73.53;100032.92;1665635;84;21089;-86
2022/12/07 12:06:44;;;;;;;20.62;15.83;;;;;;;4.34;73.64;100045.43;1666829;85;21320;-87
2022/12/07 12:09:38;;;;;;;32.83;24.40;;;;;;;4.34;73.64;100045.43;1655295;85;21093;-86
2022/12/07 12:12:29;;;;;;;38.63;26.12;;;;;;;4.28;73.66;100040.45;1669424;85;21812;-86
2022/12/07 12:15:24;;;;;;;20.10;14.80;;;;;;;4.24;73.82;100041.16;1669586;85;21546;-84
2022/12/07 12:18:32;;;;;;;25.45;18.40;;;;;;;4.22;73.71;100040.61;1658868;84;21090;-84
2022/12/07 12:21:17;;;;;;;102.87;68.33;;;;;;;4.20;73.83;100033.16;1668968;84;21598;-88
2022/12/07 12:23:59;;;;;;;60.03;45.40;;;;;;;4.17;73.89;100027.42;1659596;84;21130;-87
2022/12/07 12:26:29;;;;;;;43.65;30.90;;;;;;;4.20;73.90;100027.52;1636522;84;21731;-82